createdAt,value
2023-05-19T00:02:39.883Z,95.99
2023-05-19T00:05:46.156Z,96.38
2023-05-19T00:08:50.262Z,96.25
2023-05-19T00:11:52.843Z,96.33
2023-05-19T00:14:55.298Z,95.09
2023-05-19T00:17:58.154Z,95.29
2023-05-19T00:21:01.164Z,95.23
2023-05-19T00:24:03.894Z,95.43
2023-05-19T00:27:06.329Z,95.57
2023-05-19T00:30:09.110Z,95.78
2023-05-19T00:33:11.433Z,95.02
2023-05-19T00:36:13.752Z,94.89
2023-05-19T00:39:16.120Z,95.85
2023-05-19T00:42:18.483Z,96.43
2023-05-19T00:45:20.831Z,97.00
2023-05-19T00:48:25.024Z,97.62
2023-05-19T00:51:29.679Z,97.96
2023-05-19T00:54:34.413Z,97.43
2023-05-19T00:57:37.868Z,98.13
2023-05-19T01:00:40.821Z,97.78
2023-05-19T01:03:44.287Z,98.85
2023-05-19T01:06:55.004Z,98.66
2023-05-19T01:09:57.909Z,99.21
2023-05-19T01:13:01.846Z,100.00
2023-05-19T01:16:25.083Z,100.00
2023-05-19T01:19:42.541Z,99.95
2023-05-19T01:23:21.587Z,100.00
2023-05-19T01:26:23.967Z,100.00
2023-05-19T01:29:30.770Z,100.00
2023-05-19T01:32:34.716Z,100.00
2023-05-19T01:35:39.620Z,100.00
2023-05-19T01:38:43.972Z,100.00
2023-05-19T01:41:47.519Z,100.00
2023-05-19T01:44:49.980Z,100.00
2023-05-19T01:47:55.591Z,100.00
2023-05-19T01:50:58.491Z,100.00
2023-05-19T01:54:01.340Z,100.00
2023-05-19T01:57:12.874Z,100.00
2023-05-19T02:00:34.209Z,100.00
2023-05-19T02:04:03.578Z,100.00
2023-05-19T02:07:18.697Z,100.00
2023-05-19T02:10:30.939Z,100.00
2023-05-19T02:13:37.908Z,100.00
2023-05-19T02:16:45.812Z,100.00
2023-05-19T02:19:49.402Z,100.00
2023-05-19T02:22:51.857Z,100.00
2023-05-19T02:25:54.188Z,100.00
2023-05-19T02:28:56.631Z,100.00
2023-05-19T02:32:02.241Z,100.00
2023-05-19T02:35:05.038Z,100.00
2023-05-19T02:38:08.910Z,100.00
2023-05-19T02:41:11.214Z,100.00
2023-05-19T02:44:13.614Z,100.00
2023-05-19T02:47:16.309Z,100.00
2023-05-19T02:50:19.643Z,100.00
2023-05-19T02:53:21.925Z,100.00
2023-05-19T02:56:24.308Z,100.00
2023-05-19T02:59:27.050Z,100.00
2023-05-19T03:02:30.847Z,100.00
2023-05-19T03:05:33.309Z,100.00
2023-05-19T03:08:36.459Z,100.00
2023-05-19T03:11:38.757Z,100.00
2023-05-19T03:14:41.303Z,100.00
2023-05-19T03:17:43.743Z,100.00
2023-05-19T03:20:46.431Z,100.00
2023-05-19T03:23:48.850Z,100.00
2023-05-19T03:26:51.775Z,100.00
2023-05-19T03:29:54.551Z,100.00
2023-05-19T03:32:57.906Z,100.00
2023-05-19T03:36:00.405Z,100.00
2023-05-19T03:39:07.822Z,100.00
2023-05-19T03:42:10.427Z,100.00
2023-05-19T03:45:12.975Z,100.00
2023-05-19T03:48:16.063Z,100.00
2023-05-19T03:51:44.940Z,100.00
2023-05-19T03:55:14.858Z,100.00
2023-05-19T03:58:17.268Z,99.01
2023-05-19T04:01:19.628Z,98.40
2023-05-19T04:04:22.021Z,98.32
2023-05-19T04:07:24.599Z,97.61
2023-05-19T04:10:27.245Z,97.72
2023-05-19T04:13:33.154Z,97.34
2023-05-19T04:16:36.069Z,96.62
2023-05-19T04:19:39.030Z,96.17
2023-05-19T04:22:41.920Z,96.07
2023-05-19T04:25:48.899Z,94.66
2023-05-19T04:28:51.561Z,93.77
2023-05-19T04:31:53.952Z,93.52
2023-05-19T04:34:58.942Z,92.71
2023-05-19T04:38:03.824Z,92.80
2023-05-19T04:41:12.236Z,91.60
2023-05-19T04:44:18.467Z,90.47
2023-05-19T04:47:28.353Z,89.14
2023-05-19T04:50:32.520Z,87.33
2023-05-19T04:53:36.730Z,87.48
2023-05-19T04:56:42.123Z,85.37
2023-05-19T04:59:44.672Z,84.47
2023-05-19T05:02:47.256Z,83.81
2023-05-19T05:05:53.462Z,84.06
2023-05-19T05:08:56.965Z,83.87
2023-05-19T05:12:02.932Z,82.31
2023-05-19T05:15:07.189Z,81.77
2023-05-19T05:18:10.217Z,79.61
2023-05-19T05:21:13.484Z,78.51
2023-05-19T05:24:16.673Z,79.80
2023-05-19T05:27:26.447Z,79.91
2023-05-19T05:30:28.954Z,80.02
2023-05-19T05:33:32.612Z,77.71
2023-05-19T05:36:35.257Z,76.53
2023-05-19T05:39:37.878Z,78.04
2023-05-19T05:42:40.569Z,79.74
2023-05-19T05:45:43.029Z,79.35
2023-05-19T05:48:46.312Z,78.18
2023-05-19T05:52:05.080Z,77.19
2023-05-19T05:55:14.445Z,75.69
2023-05-19T05:58:17.503Z,72.69
2023-05-19T06:01:22.219Z,74.24
2023-05-19T06:04:28.978Z,74.49
2023-05-19T06:07:32.653Z,72.79
2023-05-19T06:10:36.857Z,71.03
2023-05-19T06:13:43.751Z,72.79
2023-05-19T06:16:53.280Z,75.07
2023-05-19T06:19:56.269Z,74.60
2023-05-19T06:22:58.622Z,71.99
2023-05-19T06:26:02.723Z,65.88
2023-05-19T06:29:06.588Z,68.97
2023-05-19T06:32:10.586Z,66.26
2023-05-19T06:35:16.868Z,66.33
2023-05-19T06:38:19.543Z,67.31
2023-05-19T06:41:21.956Z,67.59
2023-05-19T06:44:26.898Z,69.66
2023-05-19T06:47:30.132Z,70.53
2023-05-19T06:50:32.769Z,68.89
2023-05-19T06:53:36.774Z,68.68
2023-05-19T06:56:45.105Z,66.94
2023-05-19T06:59:49.769Z,65.51
2023-05-19T07:02:53.712Z,66.79
2023-05-19T07:05:57.527Z,68.26
2023-05-19T07:09:00.172Z,68.28
2023-05-19T07:12:12.965Z,68.43
2023-05-19T07:15:17.208Z,66.46
2023-05-19T07:18:20.230Z,65.61
2023-05-19T07:21:22.938Z,64.29
2023-05-19T07:24:28.233Z,64.36
2023-05-19T07:27:30.725Z,66.10
2023-05-19T07:30:34.877Z,59.27
2023-05-19T07:33:38.163Z,56.76
2023-05-19T07:36:40.592Z,55.64
2023-05-19T07:39:43.032Z,52.10
2023-05-19T07:42:45.387Z,49.75
2023-05-19T07:45:48.490Z,50.94
2023-05-19T07:48:52.400Z,50.97
2023-05-19T07:51:55.261Z,56.76
2023-05-19T07:54:59.601Z,52.84
2023-05-19T07:58:04.806Z,48.96
2023-05-19T08:01:07.074Z,46.43
2023-05-19T08:04:12.678Z,46.28
2023-05-19T08:07:15.533Z,50.57
2023-05-19T08:10:18.124Z,53.43
2023-05-19T08:13:20.505Z,50.32
2023-05-19T08:16:24.894Z,44.89
2023-05-19T08:19:28.900Z,47.48
2023-05-19T08:22:31.256Z,51.36
2023-05-19T08:25:35.835Z,54.87
2023-05-19T08:28:39.322Z,52.99
2023-05-19T08:31:41.902Z,52.60
2023-05-19T08:34:45.614Z,53.08
2023-05-19T08:37:48.517Z,56.45
2023-05-19T08:40:59.432Z,59.64
2023-05-19T08:44:07.542Z,57.45
2023-05-19T08:47:13.997Z,57.04
2023-05-19T08:50:21.465Z,58.94
2023-05-19T08:53:33.850Z,58.51
2023-05-19T08:56:37.901Z,57.11
2023-05-19T08:59:43.568Z,58.99
2023-05-19T09:02:59.657Z,56.46
2023-05-19T09:06:06.392Z,55.95
2023-05-19T09:09:09.758Z,48.95
2023-05-19T09:12:13.852Z,46.36
2023-05-19T09:15:20.609Z,52.59
2023-05-19T09:18:24.892Z,52.53
2023-05-19T09:21:31.581Z,52.82
2023-05-19T09:24:34.828Z,57.21
2023-05-19T09:27:37.371Z,56.79
2023-05-19T09:30:39.831Z,52.31
2023-05-19T09:33:45.856Z,51.43
2023-05-19T09:36:53.639Z,49.29
2023-05-19T09:39:56.851Z,50.07
2023-05-19T09:42:59.165Z,50.15
2023-05-19T09:46:10.586Z,46.78
2023-05-19T09:49:16.536Z,45.18
2023-05-19T09:52:19.362Z,43.68
2023-05-19T09:55:28.863Z,44.52
2023-05-19T09:58:35.452Z,50.58
2023-05-19T10:01:41.330Z,51.70
2023-05-19T10:04:46.403Z,49.16
2023-05-19T10:07:54.927Z,49.62
2023-05-19T10:10:57.981Z,50.16
2023-05-19T10:14:00.818Z,49.08
2023-05-19T10:17:03.946Z,47.02
2023-05-19T10:20:18.676Z,46.37
2023-05-19T10:23:24.659Z,46.97
2023-05-19T10:26:31.635Z,48.44
2023-05-19T10:29:38.353Z,48.20
2023-05-19T10:32:44.814Z,48.51
2023-05-19T10:36:24.829Z,49.88
2023-05-19T10:39:35.734Z,50.50
2023-05-19T10:43:02.784Z,50.13
2023-05-19T10:46:06.548Z,51.10
2023-05-19T10:49:08.995Z,51.03
2023-05-19T10:52:31.088Z,51.71
2023-05-19T10:55:50.569Z,51.85
2023-05-19T10:58:53.151Z,51.27
2023-05-19T11:01:55.693Z,50.76
2023-05-19T11:05:09.858Z,51.50
2023-05-19T11:08:13.112Z,53.74
2023-05-19T11:11:17.083Z,52.54
2023-05-19T11:14:26.717Z,53.13
2023-05-19T11:17:29.710Z,51.45
2023-05-19T11:20:37.399Z,52.95
2023-05-19T11:23:43.442Z,52.02
2023-05-19T11:26:46.440Z,52.21
2023-05-19T11:29:49.581Z,53.49
2023-05-19T11:32:54.253Z,53.76
2023-05-19T11:35:58.608Z,51.85
2023-05-19T11:39:02.646Z,51.51
2023-05-19T11:42:05.074Z,51.60
2023-05-19T11:45:08.365Z,50.95
2023-05-19T11:48:16.046Z,50.93
2023-05-19T11:51:22.917Z,50.89
2023-05-19T11:54:31.648Z,52.05
2023-05-19T11:57:36.406Z,52.94
2023-05-19T12:00:40.844Z,53.31
2023-05-19T12:03:43.689Z,52.50
2023-05-19T12:06:49.466Z,53.14
2023-05-19T12:09:52.525Z,51.45
2023-05-19T12:12:55.612Z,51.39
2023-05-19T12:16:01.327Z,51.90
2023-05-19T12:19:06.814Z,52.28
2023-05-19T12:22:10.156Z,53.45
2023-05-19T12:25:12.768Z,53.05
2023-05-19T12:28:16.696Z,52.59
2023-05-19T12:31:20.871Z,51.39
2023-05-19T12:34:23.829Z,51.90
2023-05-19T12:37:33.332Z,52.20
2023-05-19T12:40:37.939Z,50.98
2023-05-19T12:43:41.302Z,50.12
2023-05-19T12:46:44.465Z,50.70
2023-05-19T12:49:57.314Z,50.56
2023-05-19T12:53:00.086Z,51.02
2023-05-19T12:56:12.013Z,51.93
2023-05-19T12:59:34.832Z,51.16
2023-05-19T13:03:05.615Z,51.18
2023-05-19T13:06:09.715Z,51.95
2023-05-19T13:09:21.818Z,51.46
2023-05-19T13:12:28.512Z,51.07
2023-05-19T13:15:37.861Z,51.84
2023-05-19T13:18:44.412Z,52.73
2023-05-19T13:21:51.247Z,52.34
2023-05-19T13:24:53.650Z,52.76
2023-05-19T13:27:56.839Z,50.91
2023-05-19T13:30:59.725Z,50.01
2023-05-19T13:34:02.865Z,50.53
2023-05-19T13:37:06.648Z,49.33
2023-05-19T13:40:11.566Z,49.34
2023-05-19T13:43:14.031Z,48.59
2023-05-19T13:46:16.507Z,50.23
2023-05-19T13:49:18.843Z,50.05
2023-05-19T13:52:21.900Z,48.81
2023-05-19T13:55:27.423Z,47.11
2023-05-19T13:58:30.911Z,46.29
2023-05-19T14:01:35.496Z,46.93
2023-05-19T14:04:39.147Z,49.26
2023-05-19T14:07:43.118Z,48.90
2023-05-19T14:10:48.555Z,48.43
2023-05-19T14:13:52.762Z,48.13
2023-05-19T14:16:56.202Z,47.88
2023-05-19T14:20:00.210Z,48.35
2023-05-19T14:23:03.114Z,48.13
2023-05-19T14:26:05.686Z,48.07
2023-05-19T14:32:10.948Z,46.34
2023-05-19T14:35:13.485Z,45.91
2023-05-19T14:38:17.053Z,46.33
2023-05-19T14:41:19.374Z,46.06
2023-05-19T14:44:21.646Z,46.21
2023-05-19T14:47:26.266Z,46.42
2023-05-19T14:50:29.710Z,47.38
2023-05-19T14:53:32.160Z,46.64
2023-05-19T14:56:37.646Z,47.16
2023-05-19T14:59:40.071Z,46.81
2023-05-19T15:02:42.582Z,47.42
2023-05-19T15:05:46.002Z,47.00
2023-05-19T15:08:48.441Z,47.29
2023-05-19T15:11:50.867Z,47.09
2023-05-19T15:14:53.261Z,46.60
2023-05-19T15:17:55.896Z,47.05
2023-05-19T15:20:58.278Z,46.38
2023-05-19T15:24:01.627Z,47.35
2023-05-19T15:27:04.434Z,47.79
2023-05-19T15:30:07.281Z,47.36
2023-05-19T15:33:12.320Z,46.63
2023-05-19T15:36:16.738Z,47.34
2023-05-19T15:39:19.477Z,47.12
2023-05-19T15:42:21.767Z,48.13
2023-05-19T15:45:24.120Z,49.05
2023-05-19T15:48:28.851Z,49.45
2023-05-19T15:51:31.656Z,49.22
2023-05-19T15:54:34.848Z,49.92
2023-05-19T15:57:37.523Z,49.14
2023-05-19T16:00:39.846Z,48.79
2023-05-19T16:06:46.947Z,49.90
2023-05-19T16:09:50.055Z,50.33
2023-05-19T16:12:55.288Z,50.05
2023-05-19T16:15:57.723Z,50.27
2023-05-19T16:19:00.178Z,50.50
2023-05-19T16:22:02.526Z,49.82
2023-05-19T16:25:05.616Z,50.03
2023-05-19T16:28:07.993Z,50.04
2023-05-19T16:31:10.364Z,50.07
2023-05-19T16:34:12.656Z,49.78
2023-05-19T16:37:16.216Z,50.23
2023-05-19T16:40:18.655Z,49.98
2023-05-19T16:43:20.982Z,50.57
2023-05-19T16:46:23.705Z,51.22
2023-05-19T16:49:26.223Z,51.37
2023-05-19T16:52:29.306Z,52.10
2023-05-19T16:55:31.785Z,51.99
2023-05-19T16:58:34.665Z,52.31
2023-05-19T17:01:37.179Z,53.47
2023-05-19T17:04:39.504Z,52.75
2023-05-19T17:07:41.836Z,52.89
2023-05-19T17:10:44.911Z,53.47
2023-05-19T17:13:47.505Z,54.01
2023-05-19T17:16:49.906Z,54.76
2023-05-19T17:19:52.389Z,54.87
2023-05-19T17:22:54.800Z,55.06
2023-05-19T17:25:57.144Z,54.90
2023-05-19T17:28:59.423Z,54.82
2023-05-19T17:32:01.747Z,55.01
2023-05-19T17:35:06.720Z,54.93
2023-05-19T17:38:10.800Z,55.59
2023-05-19T17:41:14.285Z,55.99
2023-05-19T17:44:16.783Z,56.57
2023-05-19T17:47:19.066Z,57.15
2023-05-19T17:50:21.549Z,57.12
2023-05-19T17:53:24.423Z,56.91
2023-05-19T17:56:32.424Z,57.65
2023-05-19T17:59:34.967Z,57.72
2023-05-19T18:02:38.134Z,58.38
2023-05-19T18:05:43.351Z,59.27
2023-05-19T18:08:51.567Z,60.49
2023-05-19T18:11:55.081Z,62.22
2023-05-19T18:14:57.514Z,63.51
2023-05-19T18:18:00.280Z,63.87
2023-05-19T18:21:02.823Z,64.16
2023-05-19T18:24:06.087Z,65.37
2023-05-19T18:27:08.389Z,65.95
2023-05-19T18:30:11.090Z,66.18
2023-05-19T18:33:13.517Z,67.57
2023-05-19T18:36:16.731Z,69.15
2023-05-19T18:39:19.334Z,69.46
2023-05-19T18:42:21.870Z,70.74
2023-05-19T18:45:24.189Z,71.96
2023-05-19T18:48:27.032Z,73.37
2023-05-19T18:51:30.083Z,74.65
2023-05-19T18:54:32.657Z,76.12
2023-05-19T18:57:34.943Z,78.00
2023-05-19T19:00:37.442Z,78.38
2023-05-19T19:03:39.788Z,79.81
2023-05-19T19:06:43.831Z,80.66
2023-05-19T19:09:46.322Z,82.29
2023-05-19T19:12:48.780Z,83.27
2023-05-19T19:15:51.130Z,83.31
2023-05-19T19:18:53.572Z,83.13
2023-05-19T19:21:55.988Z,83.52
2023-05-19T19:24:58.292Z,84.82
2023-05-19T19:28:01.465Z,85.07
2023-05-19T19:31:03.856Z,85.97
2023-05-19T19:34:09.186Z,85.89
2023-05-19T19:37:11.552Z,86.69
2023-05-19T19:40:14.206Z,86.59
2023-05-19T19:43:16.563Z,86.15
2023-05-19T19:46:20.258Z,86.59
2023-05-19T19:49:22.555Z,86.37
2023-05-19T19:52:25.512Z,86.08
2023-05-19T19:55:28.929Z,85.65
2023-05-19T19:58:31.317Z,84.71
2023-05-19T20:01:33.961Z,84.23
2023-05-19T20:04:36.581Z,82.81
2023-05-19T20:07:39.606Z,82.70
2023-05-19T20:10:44.010Z,82.29
2023-05-19T20:13:47.171Z,82.47
2023-05-19T20:16:49.533Z,83.19
2023-05-19T20:19:51.905Z,83.11
2023-05-19T20:22:54.213Z,83.42
2023-05-19T20:26:11.043Z,82.90
2023-05-19T20:29:14.648Z,82.65
2023-05-19T20:32:17.075Z,82.51
2023-05-19T20:35:19.406Z,82.83
2023-05-19T20:38:21.745Z,82.58
2023-05-19T20:41:24.119Z,82.23
2023-05-19T20:44:27.842Z,82.23
2023-05-19T20:47:30.719Z,82.00
2023-05-19T20:50:34.402Z,82.31
2023-05-19T20:53:38.065Z,82.36
2023-05-19T20:56:40.448Z,82.43
2023-05-19T20:59:42.751Z,82.34
2023-05-19T21:02:45.150Z,82.62
2023-05-19T21:05:47.522Z,82.88
2023-05-19T21:08:50.332Z,82.77
2023-05-19T21:11:55.749Z,83.44
2023-05-19T21:14:58.082Z,84.82
2023-05-19T21:18:00.487Z,85.51
2023-05-19T21:21:04.152Z,85.93
2023-05-19T21:24:06.617Z,86.78
2023-05-19T21:27:09.012Z,87.10
2023-05-19T21:30:12.319Z,87.28
2023-05-19T21:33:14.776Z,87.44
2023-05-19T21:36:17.254Z,88.10
2023-05-19T21:39:19.604Z,88.56
2023-05-19T21:42:21.911Z,88.98
2023-05-19T21:45:24.395Z,89.33
2023-05-19T21:48:26.754Z,89.71
2023-05-19T21:51:29.275Z,90.64
2023-05-19T21:54:31.659Z,90.86
2023-05-19T21:57:35.453Z,90.74
2023-05-19T22:00:38.346Z,90.29
2023-05-19T22:03:40.836Z,90.78
2023-05-19T22:06:43.332Z,90.63
2023-05-19T22:09:48.185Z,91.26
2023-05-19T22:12:51.185Z,90.60
2023-05-19T22:15:53.651Z,90.68
2023-05-19T22:18:56.123Z,90.96
2023-05-19T22:22:09.690Z,90.77
2023-05-19T22:25:16.107Z,91.01
2023-05-19T22:28:18.454Z,90.48
2023-05-19T22:31:21.669Z,90.70
2023-05-19T22:34:24.436Z,90.26
2023-05-19T22:37:28.999Z,90.50
2023-05-19T22:40:32.658Z,89.92
2023-05-19T22:43:35.220Z,90.18
2023-05-19T22:46:37.760Z,90.14
2023-05-19T22:49:42.887Z,90.73
2023-05-19T22:52:45.254Z,90.54
2023-05-19T22:55:47.718Z,91.44
2023-05-19T22:58:50.120Z,90.99
2023-05-19T23:01:52.485Z,90.68
2023-05-19T23:04:54.844Z,91.29
2023-05-19T23:07:57.179Z,91.59
2023-05-19T23:11:01.022Z,92.67
2023-05-19T23:14:03.364Z,93.12
2023-05-19T23:17:05.882Z,93.92
2023-05-19T23:20:08.600Z,94.36
2023-05-19T23:23:10.989Z,95.23
2023-05-19T23:26:16.085Z,95.05
2023-05-19T23:29:18.524Z,95.74
2023-05-19T23:32:20.912Z,95.92
2023-05-19T23:35:23.206Z,95.54
2023-05-19T23:38:27.095Z,96.39
2023-05-19T23:41:29.605Z,97.08
2023-05-19T23:44:31.926Z,96.67
2023-05-19T23:47:34.340Z,97.24
2023-05-19T23:50:36.737Z,96.86
2023-05-19T23:53:39.181Z,97.40
2023-05-19T23:56:42.546Z,97.61
2023-05-19T23:59:44.970Z,97.83
